sensor_id;sensor_type;location;lat;lon;timestamp;P1;durP1;ratioP1;P2;durP2;ratioP2
74492;SDS011;62978;51.094;-115.362;2022-08-24T00:01:05;5.00;;;3.20;;
74492;SDS011;62978;51.094;-115.362;2022-08-24T00:03:35;6.20;;;3.10;;
74492;SDS011;62978;51.094;-115.362;2022-08-24T00:06:04;5.60;;;3.20;;
74492;SDS011;62978;51.094;-115.362;2022-08-24T00:08:35;6.40;;;3.80;;
74492;SDS011;62978;51.094;-115.362;2022-08-24T00:11:05;5.10;;;3.50;;
74492;SDS011;62978;51.094;-115.362;2022-08-24T00:13:34;7.40;;;3.40;;
74492;SDS011;62978;51.094;-115.362;2022-08-24T00:16:04;6.10;;;3.50;;
74492;SDS011;62978;51.094;-115.362;2022-08-24T00:18:32;5.90;;;3.10;;
74492;SDS011;62978;51.094;-115.362;2022-08-24T00:21:09;7.10;;;3.90;;
74492;SDS011;62978;51.094;-115.362;2022-08-24T00:23:38;6.30;;;3.50;;
74492;SDS011;62978;51.094;-115.362;2022-08-24T00:26:06;6.20;;;3.10;;
74492;SDS011;62978;51.094;-115.362;2022-08-24T00:28:34;8.20;;;3.50;;
74492;SDS011;62978;51.094;-115.362;2022-08-24T00:31:02;5.80;;;3.20;;
74492;SDS011;62978;51.094;-115.362;2022-08-24T00:33:30;6.80;;;3.50;;
74492;SDS011;62978;51.094;-115.362;2022-08-24T00:35:57;5.60;;;3.20;;
74492;SDS011;62978;51.094;-115.362;2022-08-24T00:38:25;6.10;;;3.50;;
74492;SDS011;62978;51.094;-115.362;2022-08-24T00:40:53;6.50;;;3.70;;
74492;SDS011;62978;51.094;-115.362;2022-08-24T00:43:22;7.10;;;3.70;;
74492;SDS011;62978;51.094;-115.362;2022-08-24T00:46:01;5.00;;;3.20;;
74492;SDS011;62978;51.094;-115.362;2022-08-24T00:48:49;6.00;;;3.50;;
74492;SDS011;62978;51.094;-115.362;2022-08-24T00:51:35;7.10;;;4.20;;
74492;SDS011;62978;51.094;-115.362;2022-08-24T00:54:12;6.60;;;3.60;;
74492;SDS011;62978;51.094;-115.362;2022-08-24T00:56:48;5.40;;;3.40;;
74492;SDS011;62978;51.094;-115.362;2022-08-24T00:59:27;6.20;;;3.50;;
74492;SDS011;62978;51.094;-115.362;2022-08-24T01:02:04;6.50;;;3.90;;
74492;SDS011;62978;51.094;-115.362;2022-08-24T01:04:42;7.90;;;3.90;;
74492;SDS011;62978;51.094;-115.362;2022-08-24T01:07:18;10.90;;;6.50;;
74492;SDS011;62978;51.094;-115.362;2022-08-24T01:09:49;7.30;;;3.70;;
74492;SDS011;62978;51.094;-115.362;2022-08-24T01:12:34;6.40;;;3.50;;
74492;SDS011;62978;51.094;-115.362;2022-08-24T01:15:05;5.40;;;3.00;;
74492;SDS011;62978;51.094;-115.362;2022-08-24T01:17:35;5.80;;;3.10;;
74492;SDS011;62978;51.094;-115.362;2022-08-24T01:20:22;5.60;;;3.40;;
74492;SDS011;62978;51.094;-115.362;2022-08-24T01:25:49;5.90;;;3.40;;
74492;SDS011;62978;51.094;-115.362;2022-08-24T01:28:19;4.50;;;2.60;;
74492;SDS011;62978;51.094;-115.362;2022-08-24T01:30:47;5.40;;;2.80;;
74492;SDS011;62978;51.094;-115.362;2022-08-24T01:33:29;4.80;;;3.10;;
74492;SDS011;62978;51.094;-115.362;2022-08-24T01:36:03;5.00;;;2.90;;
74492;SDS011;62978;51.094;-115.362;2022-08-24T01:38:39;5.50;;;2.90;;
74492;SDS011;62978;51.094;-115.362;2022-08-24T01:44:08;5.50;;;2.90;;
74492;SDS011;62978;51.094;-115.362;2022-08-24T01:46:56;6.20;;;3.20;;
74492;SDS011;62978;51.094;-115.362;2022-08-24T01:49:26;6.70;;;2.70;;
74492;SDS011;62978;51.094;-115.362;2022-08-24T01:51:57;6.60;;;2.70;;
74492;SDS011;62978;51.094;-115.362;2022-08-24T01:54:26;5.60;;;3.30;;
74492;SDS011;62978;51.094;-115.362;2022-08-24T01:56:54;5.50;;;2.50;;
74492;SDS011;62978;51.094;-115.362;2022-08-24T01:59:24;5.90;;;3.00;;
74492;SDS011;62978;51.094;-115.362;2022-08-24T02:01:57;6.50;;;3.20;;
74492;SDS011;62978;51.094;-115.362;2022-08-24T02:04:31;6.00;;;3.00;;
74492;SDS011;62978;51.094;-115.362;2022-08-24T02:07:00;5.00;;;2.60;;
74492;SDS011;62978;51.094;-115.362;2022-08-24T02:09:34;4.40;;;2.60;;
74492;SDS011;62978;51.094;-115.362;2022-08-24T02:12:05;6.10;;;3.00;;
74492;SDS011;62978;51.094;-115.362;2022-08-24T02:14:36;5.50;;;3.20;;
74492;SDS011;62978;51.094;-115.362;2022-08-24T02:17:08;6.40;;;3.30;;
74492;SDS011;62978;51.094;-115.362;2022-08-24T02:19:44;7.50;;;2.90;;
74492;SDS011;62978;51.094;-115.362;2022-08-24T02:22:12;5.10;;;2.90;;
74492;SDS011;62978;51.094;-115.362;2022-08-24T02:24:40;6.00;;;3.00;;
74492;SDS011;62978;51.094;-115.362;2022-08-24T02:27:11;5.90;;;3.00;;
74492;SDS011;62978;51.094;-115.362;2022-08-24T02:29:44;5.30;;;3.40;;
74492;SDS011;62978;51.094;-115.362;2022-08-24T02:32:12;4.70;;;2.70;;
74492;SDS011;62978;51.094;-115.362;2022-08-24T02:34:40;6.50;;;2.80;;
74492;SDS011;62978;51.094;-115.362;2022-08-24T02:37:09;5.70;;;3.50;;
74492;SDS011;62978;51.094;-115.362;2022-08-24T02:39:36;6.00;;;2.80;;
74492;SDS011;62978;51.094;-115.362;2022-08-24T02:42:03;6.10;;;3.30;;
74492;SDS011;62978;51.094;-115.362;2022-08-24T02:44:31;5.70;;;3.00;;
74492;SDS011;62978;51.094;-115.362;2022-08-24T02:46:58;7.20;;;3.10;;
74492;SDS011;62978;51.094;-115.362;2022-08-24T02:49:25;5.10;;;3.00;;
74492;SDS011;62978;51.094;-115.362;2022-08-24T02:51:53;5.20;;;2.60;;
74492;SDS011;62978;51.094;-115.362;2022-08-24T02:54:29;8.00;;;2.90;;
74492;SDS011;62978;51.094;-115.362;2022-08-24T02:56:57;5.20;;;2.80;;
74492;SDS011;62978;51.094;-115.362;2022-08-24T02:59:24;6.00;;;2.90;;
74492;SDS011;62978;51.094;-115.362;2022-08-24T03:01:52;5.70;;;3.00;;
74492;SDS011;62978;51.094;-115.362;2022-08-24T03:04:20;5.60;;;2.70;;
74492;SDS011;62978;51.094;-115.362;2022-08-24T03:06:47;6.50;;;2.70;;
74492;SDS011;62978;51.094;-115.362;2022-08-24T03:09:14;4.90;;;2.80;;
74492;SDS011;62978;51.094;-115.362;2022-08-24T03:11:42;5.20;;;2.80;;
74492;SDS011;62978;51.094;-115.362;2022-08-24T03:14:13;5.40;;;3.20;;
74492;SDS011;62978;51.094;-115.362;2022-08-24T03:16:50;6.40;;;3.30;;
74492;SDS011;62978;51.094;-115.362;2022-08-24T03:19:19;5.40;;;3.00;;
74492;SDS011;62978;51.094;-115.362;2022-08-24T03:21:47;4.90;;;2.60;;
74492;SDS011;62978;51.094;-115.362;2022-08-24T03:24:25;5.60;;;3.00;;
74492;SDS011;62978;51.094;-115.362;2022-08-24T03:26:52;4.40;;;2.70;;
74492;SDS011;62978;51.094;-115.362;2022-08-24T03:29:20;5.50;;;3.00;;
74492;SDS011;62978;51.094;-115.362;2022-08-24T03:31:48;5.20;;;2.80;;
74492;SDS011;62978;51.094;-115.362;2022-08-24T03:34:31;6.90;;;3.20;;
74492;SDS011;62978;51.094;-115.362;2022-08-24T03:37:08;6.50;;;3.30;;
74492;SDS011;62978;51.094;-115.362;2022-08-24T03:39:38;6.50;;;2.90;;
74492;SDS011;62978;51.094;-115.362;2022-08-24T03:42:20;5.20;;;3.10;;
74492;SDS011;62978;51.094;-115.362;2022-08-24T03:45:02;7.60;;;2.80;;
74492;SDS011;62978;51.094;-115.362;2022-08-24T03:47:40;5.80;;;3.20;;
74492;SDS011;62978;51.094;-115.362;2022-08-24T03:50:27;4.90;;;2.50;;
74492;SDS011;62978;51.094;-115.362;2022-08-24T03:53:04;5.50;;;3.00;;
74492;SDS011;62978;51.094;-115.362;2022-08-24T03:55:43;11.20;;;5.90;;
74492;SDS011;62978;51.094;-115.362;2022-08-24T03:58:23;6.40;;;3.50;;
74492;SDS011;62978;51.094;-115.362;2022-08-24T04:01:50;4.80;;;2.80;;
74492;SDS011;62978;51.094;-115.362;2022-08-24T04:04:27;5.80;;;2.90;;
74492;SDS011;62978;51.094;-115.362;2022-08-24T04:07:06;5.80;;;3.00;;
74492;SDS011;62978;51.094;-115.362;2022-08-24T04:09:37;8.10;;;3.00;;
74492;SDS011;62978;51.094;-115.362;2022-08-24T04:12:13;6.40;;;2.80;;
74492;SDS011;62978;51.094;-115.362;2022-08-24T04:14:50;5.20;;;2.80;;
74492;SDS011;62978;51.094;-115.362;2022-08-24T04:17:20;5.40;;;3.20;;
74492;SDS011;62978;51.094;-115.362;2022-08-24T04:19:48;5.20;;;3.40;;
74492;SDS011;62978;51.094;-115.362;2022-08-24T04:22:47;8.10;;;2.90;;
74492;SDS011;62978;51.094;-115.362;2022-08-24T04:25:16;6.40;;;3.20;;
74492;SDS011;62978;51.094;-115.362;2022-08-24T04:27:53;6.80;;;3.80;;
74492;SDS011;62978;51.094;-115.362;2022-08-24T04:30:23;6.00;;;3.10;;
74492;SDS011;62978;51.094;-115.362;2022-08-24T04:32:50;6.10;;;3.70;;
74492;SDS011;62978;51.094;-115.362;2022-08-24T04:35:18;6.50;;;2.90;;
74492;SDS011;62978;51.094;-115.362;2022-08-24T04:37:49;5.90;;;3.10;;
74492;SDS011;62978;51.094;-115.362;2022-08-24T04:40:17;5.40;;;3.00;;
74492;SDS011;62978;51.094;-115.362;2022-08-24T04:42:44;5.30;;;3.20;;
74492;SDS011;62978;51.094;-115.362;2022-08-24T04:45:20;6.90;;;3.30;;
74492;SDS011;62978;51.094;-115.362;2022-08-24T04:47:48;7.20;;;3.40;;
74492;SDS011;62978;51.094;-115.362;2022-08-24T04:50:24;5.90;;;2.80;;
74492;SDS011;62978;51.094;-115.362;2022-08-24T04:52:51;5.10;;;3.10;;
74492;SDS011;62978;51.094;-115.362;2022-08-24T04:55:19;5.70;;;3.10;;
74492;SDS011;62978;51.094;-115.362;2022-08-24T04:57:46;6.80;;;3.50;;
74492;SDS011;62978;51.094;-115.362;2022-08-24T05:00:13;4.80;;;2.90;;
74492;SDS011;62978;51.094;-115.362;2022-08-24T05:02:41;6.40;;;3.50;;
74492;SDS011;62978;51.094;-115.362;2022-08-24T05:05:09;5.20;;;2.90;;
74492;SDS011;62978;51.094;-115.362;2022-08-24T05:07:37;5.20;;;2.80;;
74492;SDS011;62978;51.094;-115.362;2022-08-24T05:10:06;6.40;;;3.20;;
74492;SDS011;62978;51.094;-115.362;2022-08-24T05:12:36;8.20;;;3.70;;
74492;SDS011;62978;51.094;-115.362;2022-08-24T05:15:07;4.30;;;2.80;;
74492;SDS011;62978;51.094;-115.362;2022-08-24T05:17:35;5.90;;;3.10;;
74492;SDS011;62978;51.094;-115.362;2022-08-24T05:20:08;6.10;;;3.00;;
74492;SDS011;62978;51.094;-115.362;2022-08-24T05:22:36;6.70;;;3.20;;
74492;SDS011;62978;51.094;-115.362;2022-08-24T05:25:04;5.70;;;3.10;;
74492;SDS011;62978;51.094;-115.362;2022-08-24T05:27:41;8.30;;;3.50;;
74492;SDS011;62978;51.094;-115.362;2022-08-24T05:30:09;5.50;;;2.90;;
74492;SDS011;62978;51.094;-115.362;2022-08-24T05:32:38;6.30;;;3.00;;
74492;SDS011;62978;51.094;-115.362;2022-08-24T05:35:06;8.30;;;3.30;;
74492;SDS011;62978;51.094;-115.362;2022-08-24T05:37:36;5.30;;;3.00;;
74492;SDS011;62978;51.094;-115.362;2022-08-24T05:40:08;5.60;;;3.20;;
74492;SDS011;62978;51.094;-115.362;2022-08-24T05:42:38;6.40;;;3.00;;
74492;SDS011;62978;51.094;-115.362;2022-08-24T05:45:06;7.30;;;3.20;;
74492;SDS011;62978;51.094;-115.362;2022-08-24T05:47:34;6.80;;;3.20;;
74492;SDS011;62978;51.094;-115.362;2022-08-24T05:50:02;6.10;;;3.50;;
74492;SDS011;62978;51.094;-115.362;2022-08-24T05:52:38;5.80;;;3.10;;
74492;SDS011;62978;51.094;-115.362;2022-08-24T05:55:06;5.70;;;3.20;;
74492;SDS011;62978;51.094;-115.362;2022-08-24T05:57:34;7.20;;;3.10;;
74492;SDS011;62978;51.094;-115.362;2022-08-24T06:00:04;4.80;;;3.00;;
74492;SDS011;62978;51.094;-115.362;2022-08-24T06:02:35;5.30;;;2.60;;
74492;SDS011;62978;51.094;-115.362;2022-08-24T06:05:02;4.50;;;2.60;;
74492;SDS011;62978;51.094;-115.362;2022-08-24T06:07:30;6.10;;;2.40;;
74492;SDS011;62978;51.094;-115.362;2022-08-24T06:09:59;4.70;;;2.80;;
74492;SDS011;62978;51.094;-115.362;2022-08-24T06:12:26;5.90;;;2.60;;
74492;SDS011;62978;51.094;-115.362;2022-08-24T06:14:54;4.10;;;2.30;;
74492;SDS011;62978;51.094;-115.362;2022-08-24T06:17:21;4.50;;;2.40;;
74492;SDS011;62978;51.094;-115.362;2022-08-24T06:19:48;5.30;;;2.70;;
74492;SDS011;62978;51.094;-115.362;2022-08-24T06:22:25;4.70;;;2.60;;
74492;SDS011;62978;51.094;-115.362;2022-08-24T06:24:52;4.70;;;2.80;;
74492;SDS011;62978;51.094;-115.362;2022-08-24T06:27:38;4.70;;;2.70;;
74492;SDS011;62978;51.094;-115.362;2022-08-24T06:30:10;6.70;;;2.90;;
74492;SDS011;62978;51.094;-115.362;2022-08-24T06:32:38;5.20;;;2.80;;
74492;SDS011;62978;51.094;-115.362;2022-08-24T06:35:12;5.70;;;2.90;;
74492;SDS011;62978;51.094;-115.362;2022-08-24T06:37:39;5.90;;;2.60;;
74492;SDS011;62978;51.094;-115.362;2022-08-24T06:40:08;4.90;;;2.50;;
74492;SDS011;62978;51.094;-115.362;2022-08-24T06:42:39;4.80;;;2.70;;
74492;SDS011;62978;51.094;-115.362;2022-08-24T06:45:16;4.80;;;2.60;;
74492;SDS011;62978;51.094;-115.362;2022-08-24T06:47:43;4.90;;;2.60;;
74492;SDS011;62978;51.094;-115.362;2022-08-24T06:50:11;4.80;;;2.60;;
74492;SDS011;62978;51.094;-115.362;2022-08-24T06:52:39;5.40;;;2.70;;
74492;SDS011;62978;51.094;-115.362;2022-08-24T06:55:06;4.80;;;2.60;;
74492;SDS011;62978;51.094;-115.362;2022-08-24T06:57:34;5.10;;;2.60;;
74492;SDS011;62978;51.094;-115.362;2022-08-24T07:00:05;4.60;;;2.60;;
74492;SDS011;62978;51.094;-115.362;2022-08-24T07:02:35;4.80;;;2.50;;
74492;SDS011;62978;51.094;-115.362;2022-08-24T07:05:11;4.70;;;2.50;;
74492;SDS011;62978;51.094;-115.362;2022-08-24T07:07:39;5.60;;;2.80;;
74492;SDS011;62978;51.094;-115.362;2022-08-24T07:10:07;4.60;;;2.40;;
74492;SDS011;62978;51.094;-115.362;2022-08-24T07:12:35;5.40;;;2.70;;
74492;SDS011;62978;51.094;-115.362;2022-08-24T07:15:03;4.80;;;2.80;;
74492;SDS011;62978;51.094;-115.362;2022-08-24T07:17:31;4.30;;;2.40;;
74492;SDS011;62978;51.094;-115.362;2022-08-24T07:20:08;6.20;;;2.60;;
74492;SDS011;62978;51.094;-115.362;2022-08-24T07:22:39;4.40;;;2.30;;
74492;SDS011;62978;51.094;-115.362;2022-08-24T07:25:07;4.50;;;2.50;;
74492;SDS011;62978;51.094;-115.362;2022-08-24T07:27:43;4.60;;;2.60;;
74492;SDS011;62978;51.094;-115.362;2022-08-24T07:30:11;5.10;;;2.40;;
74492;SDS011;62978;51.094;-115.362;2022-08-24T07:32:59;4.30;;;2.50;;
74492;SDS011;62978;51.094;-115.362;2022-08-24T07:35:28;5.10;;;2.70;;
74492;SDS011;62978;51.094;-115.362;2022-08-24T07:38:16;4.60;;;2.40;;
74492;SDS011;62978;51.094;-115.362;2022-08-24T07:40:45;4.30;;;2.50;;
74492;SDS011;62978;51.094;-115.362;2022-08-24T07:43:15;5.70;;;2.70;;
74492;SDS011;62978;51.094;-115.362;2022-08-24T07:46:13;4.60;;;2.30;;
74492;SDS011;62978;51.094;-115.362;2022-08-24T07:49:00;4.10;;;2.30;;
74492;SDS011;62978;51.094;-115.362;2022-08-24T07:51:32;4.30;;;2.50;;
74492;SDS011;62978;51.094;-115.362;2022-08-24T07:54:01;5.00;;;2.70;;
74492;SDS011;62978;51.094;-115.362;2022-08-24T07:56:29;4.40;;;2.50;;
74492;SDS011;62978;51.094;-115.362;2022-08-24T07:58:57;5.00;;;2.60;;
74492;SDS011;62978;51.094;-115.362;2022-08-24T08:01:24;4.60;;;2.50;;
74492;SDS011;62978;51.094;-115.362;2022-08-24T08:03:55;5.10;;;2.70;;
74492;SDS011;62978;51.094;-115.362;2022-08-24T08:06:45;5.70;;;2.70;;
74492;SDS011;62978;51.094;-115.362;2022-08-24T08:09:35;4.80;;;2.80;;
74492;SDS011;62978;51.094;-115.362;2022-08-24T08:12:03;4.20;;;2.60;;
74492;SDS011;62978;51.094;-115.362;2022-08-24T08:14:51;4.60;;;2.40;;
74492;SDS011;62978;51.094;-115.362;2022-08-24T08:17:35;5.30;;;2.50;;
74492;SDS011;62978;51.094;-115.362;2022-08-24T08:20:37;4.30;;;2.60;;
74492;SDS011;62978;51.094;-115.362;2022-08-24T08:23:25;4.60;;;2.50;;
74492;SDS011;62978;51.094;-115.362;2022-08-24T08:29:19;4.40;;;2.30;;
74492;SDS011;62978;51.094;-115.362;2022-08-24T08:31:46;4.80;;;2.60;;
74492;SDS011;62978;51.094;-115.362;2022-08-24T08:34:14;4.80;;;2.40;;
74492;SDS011;62978;51.094;-115.362;2022-08-24T08:36:42;4.10;;;2.60;;
74492;SDS011;62978;51.094;-115.362;2022-08-24T08:39:12;5.00;;;3.00;;
74492;SDS011;62978;51.094;-115.362;2022-08-24T08:47:38;5.50;;;2.80;;
74492;SDS011;62978;51.094;-115.362;2022-08-24T08:53:24;4.90;;;2.50;;
74492;SDS011;62978;51.094;-115.362;2022-08-24T09:03:20;5.20;;;2.70;;
74492;SDS011;62978;51.094;-115.362;2022-08-24T09:21:59;5.10;;;2.80;;
74492;SDS011;62978;51.094;-115.362;2022-08-24T09:24:43;5.30;;;2.60;;
74492;SDS011;62978;51.094;-115.362;2022-08-24T09:30:23;5.90;;;2.90;;
74492;SDS011;62978;51.094;-115.362;2022-08-24T09:36:08;5.30;;;2.60;;
74492;SDS011;62978;51.094;-115.362;2022-08-24T10:00:45;5.30;;;2.60;;
74492;SDS011;62978;51.094;-115.362;2022-08-24T10:15:40;5.70;;;2.90;;
74492;SDS011;62978;51.094;-115.362;2022-08-24T10:24:36;6.20;;;2.40;;
74492;SDS011;62978;51.094;-115.362;2022-08-24T10:28:06;5.30;;;3.00;;
74492;SDS011;62978;51.094;-115.362;2022-08-24T10:31:03;5.50;;;2.90;;
74492;SDS011;62978;51.094;-115.362;2022-08-24T10:43:11;5.60;;;2.70;;
74492;SDS011;62978;51.094;-115.362;2022-08-24T10:58:33;6.40;;;2.80;;
74492;SDS011;62978;51.094;-115.362;2022-08-24T11:02:11;4.10;;;2.60;;
74492;SDS011;62978;51.094;-115.362;2022-08-24T11:05:07;4.40;;;2.50;;
74492;SDS011;62978;51.094;-115.362;2022-08-24T11:07:58;5.70;;;2.50;;
74492;SDS011;62978;51.094;-115.362;2022-08-24T11:10:35;4.80;;;2.80;;
74492;SDS011;62978;51.094;-115.362;2022-08-24T11:13:33;4.20;;;2.20;;
74492;SDS011;62978;51.094;-115.362;2022-08-24T11:16:26;5.90;;;2.70;;
74492;SDS011;62978;51.094;-115.362;2022-08-24T11:22:35;7.40;;;2.60;;
74492;SDS011;62978;51.094;-115.362;2022-08-24T11:25:35;4.20;;;2.60;;
74492;SDS011;62978;51.094;-115.362;2022-08-24T11:28:39;5.20;;;2.60;;
74492;SDS011;62978;51.094;-115.362;2022-08-24T11:31:32;4.50;;;2.30;;
74492;SDS011;62978;51.094;-115.362;2022-08-24T11:34:32;4.50;;;2.50;;
74492;SDS011;62978;51.094;-115.362;2022-08-24T11:37:03;5.50;;;2.70;;
74492;SDS011;62978;51.094;-115.362;2022-08-24T11:39:37;6.00;;;2.60;;
74492;SDS011;62978;51.094;-115.362;2022-08-24T11:55:35;6.20;;;2.60;;
74492;SDS011;62978;51.094;-115.362;2022-08-24T11:58:52;6.80;;;2.80;;
74492;SDS011;62978;51.094;-115.362;2022-08-24T12:02:10;6.80;;;2.70;;
74492;SDS011;62978;51.094;-115.362;2022-08-24T12:18:25;4.40;;;2.60;;
74492;SDS011;62978;51.094;-115.362;2022-08-24T12:21:05;6.60;;;2.60;;
74492;SDS011;62978;51.094;-115.362;2022-08-24T12:23:48;4.80;;;2.60;;
74492;SDS011;62978;51.094;-115.362;2022-08-24T12:32:46;5.40;;;2.80;;
74492;SDS011;62978;51.094;-115.362;2022-08-24T12:35:52;4.80;;;2.60;;
74492;SDS011;62978;51.094;-115.362;2022-08-24T12:38:40;5.20;;;2.30;;
74492;SDS011;62978;51.094;-115.362;2022-08-24T12:41:26;6.50;;;2.50;;
74492;SDS011;62978;51.094;-115.362;2022-08-24T12:44:19;5.50;;;2.70;;
74492;SDS011;62978;51.094;-115.362;2022-08-24T12:47:02;7.40;;;3.20;;
74492;SDS011;62978;51.094;-115.362;2022-08-24T12:49:59;6.10;;;2.70;;
74492;SDS011;62978;51.094;-115.362;2022-08-24T12:59:05;7.40;;;2.80;;
74492;SDS011;62978;51.094;-115.362;2022-08-24T13:01:45;6.00;;;2.90;;
74492;SDS011;62978;51.094;-115.362;2022-08-24T13:13:09;4.60;;;2.70;;
74492;SDS011;62978;51.094;-115.362;2022-08-24T13:15:53;6.70;;;2.90;;
74492;SDS011;62978;51.094;-115.362;2022-08-24T13:21:45;6.60;;;3.10;;
74492;SDS011;62978;51.094;-115.362;2022-08-24T13:33:10;6.60;;;2.80;;
74492;SDS011;62978;51.094;-115.362;2022-08-24T13:35:55;5.80;;;2.90;;
74492;SDS011;62978;51.094;-115.362;2022-08-24T13:41:16;8.70;;;3.10;;
74492;SDS011;62978;51.094;-115.362;2022-08-24T14:05:36;8.60;;;3.40;;
74492;SDS011;62978;51.094;-115.362;2022-08-24T14:08:34;6.60;;;3.00;;
74492;SDS011;62978;51.094;-115.362;2022-08-24T14:11:11;14.10;;;3.50;;
74492;SDS011;62978;51.094;-115.362;2022-08-24T14:14:09;9.30;;;3.60;;
74492;SDS011;62978;51.094;-115.362;2022-08-24T14:17:28;9.20;;;3.40;;
74492;SDS011;62978;51.094;-115.362;2022-08-24T14:23:19;6.30;;;3.50;;
74492;SDS011;62978;51.094;-115.362;2022-08-24T14:26:18;5.60;;;3.10;;
74492;SDS011;62978;51.094;-115.362;2022-08-24T14:37:23;9.30;;;3.80;;
74492;SDS011;62978;51.094;-115.362;2022-08-24T14:46:54;7.20;;;3.40;;
74492;SDS011;62978;51.094;-115.362;2022-08-24T14:55:33;10.00;;;3.90;;
74492;SDS011;62978;51.094;-115.362;2022-08-24T14:58:22;7.80;;;3.40;;
74492;SDS011;62978;51.094;-115.362;2022-08-24T15:07:20;9.10;;;3.90;;
74492;SDS011;62978;51.094;-115.362;2022-08-24T15:09:53;8.10;;;3.90;;
74492;SDS011;62978;51.094;-115.362;2022-08-24T15:12:43;8.90;;;4.40;;
74492;SDS011;62978;51.094;-115.362;2022-08-24T15:21:39;14.10;;;4.40;;
74492;SDS011;62978;51.094;-115.362;2022-08-24T15:27:58;13.90;;;6.60;;
74492;SDS011;62978;51.094;-115.362;2022-08-24T15:30:36;13.90;;;4.90;;
74492;SDS011;62978;51.094;-115.362;2022-08-24T15:33:13;11.40;;;5.00;;
74492;SDS011;62978;51.094;-115.362;2022-08-24T15:35:49;8.10;;;5.10;;
74492;SDS011;62978;51.094;-115.362;2022-08-24T15:41:23;11.70;;;4.90;;
74492;SDS011;62978;51.094;-115.362;2022-08-24T15:44:14;11.90;;;5.70;;
74492;SDS011;62978;51.094;-115.362;2022-08-24T15:46:53;10.60;;;5.60;;
74492;SDS011;62978;51.094;-115.362;2022-08-24T15:49:59;11.50;;;5.60;;
74492;SDS011;62978;51.094;-115.362;2022-08-24T15:53:06;12.00;;;5.20;;
74492;SDS011;62978;51.094;-115.362;2022-08-24T15:55:46;12.30;;;6.00;;
74492;SDS011;62978;51.094;-115.362;2022-08-24T15:58:34;9.80;;;5.70;;
74492;SDS011;62978;51.094;-115.362;2022-08-24T16:04:10;10.10;;;5.30;;
74492;SDS011;62978;51.094;-115.362;2022-08-24T16:06:44;9.30;;;5.10;;
74492;SDS011;62978;51.094;-115.362;2022-08-24T16:12:22;9.30;;;5.30;;
74492;SDS011;62978;51.094;-115.362;2022-08-24T16:15:15;10.90;;;5.60;;
74492;SDS011;62978;51.094;-115.362;2022-08-24T16:17:53;8.90;;;5.20;;
74492;SDS011;62978;51.094;-115.362;2022-08-24T16:23:24;9.30;;;5.70;;
74492;SDS011;62978;51.094;-115.362;2022-08-24T16:26:32;9.90;;;5.30;;
74492;SDS011;62978;51.094;-115.362;2022-08-24T16:29:03;10.20;;;5.10;;
74492;SDS011;62978;51.094;-115.362;2022-08-24T16:32:23;11.60;;;5.20;;
74492;SDS011;62978;51.094;-115.362;2022-08-24T16:35:16;10.20;;;5.70;;
74492;SDS011;62978;51.094;-115.362;2022-08-24T16:37:53;10.10;;;6.20;;
74492;SDS011;62978;51.094;-115.362;2022-08-24T16:40:21;13.70;;;6.20;;
74492;SDS011;62978;51.094;-115.362;2022-08-24T16:42:50;10.30;;;6.90;;
74492;SDS011;62978;51.094;-115.362;2022-08-24T16:45:21;11.20;;;6.10;;
74492;SDS011;62978;51.094;-115.362;2022-08-24T16:47:49;11.80;;;6.80;;
74492;SDS011;62978;51.094;-115.362;2022-08-24T16:50:18;10.20;;;6.70;;
74492;SDS011;62978;51.094;-115.362;2022-08-24T16:52:46;10.10;;;6.70;;
74492;SDS011;62978;51.094;-115.362;2022-08-24T16:55:13;10.30;;;6.50;;
74492;SDS011;62978;51.094;-115.362;2022-08-24T16:57:41;11.80;;;7.10;;
74492;SDS011;62978;51.094;-115.362;2022-08-24T17:00:15;11.00;;;6.80;;
74492;SDS011;62978;51.094;-115.362;2022-08-24T17:02:44;11.20;;;7.10;;
74492;SDS011;62978;51.094;-115.362;2022-08-24T17:05:14;9.50;;;6.10;;
74492;SDS011;62978;51.094;-115.362;2022-08-24T17:07:43;10.40;;;7.00;;
74492;SDS011;62978;51.094;-115.362;2022-08-24T17:10:14;11.90;;;6.40;;
74492;SDS011;62978;51.094;-115.362;2022-08-24T17:12:44;13.10;;;7.10;;
74492;SDS011;62978;51.094;-115.362;2022-08-24T17:15:12;11.70;;;7.40;;
74492;SDS011;62978;51.094;-115.362;2022-08-24T17:18:00;12.90;;;8.20;;
74492;SDS011;62978;51.094;-115.362;2022-08-24T17:20:31;11.20;;;7.90;;
74492;SDS011;62978;51.094;-115.362;2022-08-24T17:22:59;12.40;;;7.20;;
74492;SDS011;62978;51.094;-115.362;2022-08-24T17:25:27;12.30;;;7.80;;
74492;SDS011;62978;51.094;-115.362;2022-08-24T17:27:59;11.80;;;8.20;;
74492;SDS011;62978;51.094;-115.362;2022-08-24T17:30:27;10.50;;;7.00;;
74492;SDS011;62978;51.094;-115.362;2022-08-24T17:32:57;14.30;;;8.30;;
74492;SDS011;62978;51.094;-115.362;2022-08-24T17:35:37;10.10;;;7.20;;
74492;SDS011;62978;51.094;-115.362;2022-08-24T17:38:06;12.70;;;7.40;;
74492;SDS011;62978;51.094;-115.362;2022-08-24T17:40:36;10.80;;;7.30;;
74492;SDS011;62978;51.094;-115.362;2022-08-24T17:43:04;10.30;;;7.20;;
74492;SDS011;62978;51.094;-115.362;2022-08-24T17:45:31;10.50;;;6.40;;
74492;SDS011;62978;51.094;-115.362;2022-08-24T17:48:01;9.70;;;6.30;;
74492;SDS011;62978;51.094;-115.362;2022-08-24T17:50:32;11.00;;;7.00;;
74492;SDS011;62978;51.094;-115.362;2022-08-24T17:53:01;10.80;;;6.60;;
74492;SDS011;62978;51.094;-115.362;2022-08-24T17:55:29;8.50;;;5.80;;
74492;SDS011;62978;51.094;-115.362;2022-08-24T17:57:56;10.00;;;6.00;;
74492;SDS011;62978;51.094;-115.362;2022-08-24T18:00:24;9.10;;;4.90;;
74492;SDS011;62978;51.094;-115.362;2022-08-24T18:03:01;8.50;;;5.80;;
74492;SDS011;62978;51.094;-115.362;2022-08-24T18:05:32;8.40;;;5.30;;
74492;SDS011;62978;51.094;-115.362;2022-08-24T18:08:06;10.70;;;5.80;;
74492;SDS011;62978;51.094;-115.362;2022-08-24T18:10:34;10.60;;;6.60;;
74492;SDS011;62978;51.094;-115.362;2022-08-24T18:13:09;9.20;;;5.70;;
74492;SDS011;62978;51.094;-115.362;2022-08-24T18:15:37;9.60;;;5.70;;
74492;SDS011;62978;51.094;-115.362;2022-08-24T18:18:10;10.00;;;6.30;;
74492;SDS011;62978;51.094;-115.362;2022-08-24T18:20:39;10.30;;;7.00;;
74492;SDS011;62978;51.094;-115.362;2022-08-24T18:23:07;10.90;;;6.70;;
74492;SDS011;62978;51.094;-115.362;2022-08-24T18:25:40;11.20;;;6.20;;
74492;SDS011;62978;51.094;-115.362;2022-08-24T18:28:20;10.60;;;6.30;;
74492;SDS011;62978;51.094;-115.362;2022-08-24T18:30:48;10.80;;;6.80;;
74492;SDS011;62978;51.094;-115.362;2022-08-24T18:33:27;11.00;;;5.90;;
74492;SDS011;62978;51.094;-115.362;2022-08-24T18:35:54;8.90;;;5.90;;
74492;SDS011;62978;51.094;-115.362;2022-08-24T18:41:31;10.60;;;5.60;;
74492;SDS011;62978;51.094;-115.362;2022-08-24T18:44:02;8.10;;;5.60;;
74492;SDS011;62978;51.094;-115.362;2022-08-24T18:46:31;8.50;;;5.40;;
74492;SDS011;62978;51.094;-115.362;2022-08-24T18:49:04;12.50;;;5.80;;
74492;SDS011;62978;51.094;-115.362;2022-08-24T18:51:43;10.60;;;5.70;;
74492;SDS011;62978;51.094;-115.362;2022-08-24T18:54:41;9.70;;;5.10;;
74492;SDS011;62978;51.094;-115.362;2022-08-24T18:57:53;9.00;;;5.60;;
74492;SDS011;62978;51.094;-115.362;2022-08-24T19:00:23;12.40;;;5.20;;
74492;SDS011;62978;51.094;-115.362;2022-08-24T19:02:51;7.50;;;4.60;;
74492;SDS011;62978;51.094;-115.362;2022-08-24T19:05:22;8.30;;;5.20;;
74492;SDS011;62978;51.094;-115.362;2022-08-24T19:08:00;8.00;;;4.70;;
74492;SDS011;62978;51.094;-115.362;2022-08-24T19:10:35;8.00;;;5.10;;